EDLN/MGL METAR and TAF weather

Enter ICAO airport designator
Station Type Date Time Source
EDLN METAR 2018/01/22 19:20 UTC NOAA

EDLN 221920Z 28008KT 9999 SCT018 BKN028 08/06 Q1015


Station Type Date Time Source
EDLN Decoded METAR 2018/01/22 19:20 UTC NOAA

Monchengladbach, Germany (EDLN) 51-13-49N 006-30-16E
Jan 22, 2018 - 02:20 PM EST / 2018.01.22 1920 UTC
Wind: from the W (280 degrees) at 9 MPH (8 KT):0
Visibility: greater than 7 mile(s):0
Sky conditions: mostly cloudy
Temperature: 46 F (8 C)
Dew Point: 42 F (6 C)
Relative Humidity: 87%
Pressure (altimeter): 29.97 in. Hg (1015 hPa)
ob: EDLN 221920Z 28008KT 9999 SCT018 BKN028 08/06 Q1015
cycle: 19

Station Type Date Time Source
EDLN TAF 2010/02/22 14:20 UTC NOAA

METAR EDLN 221420Z 18010G20KT 090V240 9999 SCT030 BKN045 11/06 Q0986
RMK ATIS R=


Example: see airport list